createdAt,value
2019-03-20T00:01:26.248Z,19.92
2019-03-20T00:03:52.683Z,15.55
2019-03-20T00:06:19.265Z,12.73
2019-03-20T00:08:46.057Z,13.90
2019-03-20T00:11:12.620Z,14.75
2019-03-20T00:13:39.081Z,11.97
2019-03-20T00:16:05.535Z,20.27
2019-03-20T00:18:32.000Z,16.60
2019-03-20T00:20:58.355Z,13.90
2019-03-20T00:23:24.981Z,14.15
2019-03-20T00:25:51.435Z,12.47
2019-03-20T00:28:18.216Z,9.50
2019-03-20T00:30:45.183Z,17.42
2019-03-20T00:33:11.851Z,12.63
2019-03-20T00:35:38.310Z,15.23
2019-03-20T00:38:04.780Z,12.18
2019-03-20T00:40:31.332Z,13.18
2019-03-20T00:42:57.775Z,15.55
2019-03-20T00:45:24.602Z,17.73
2019-03-20T00:47:51.553Z,16.67
2019-03-20T00:50:19.173Z,15.05
2019-03-20T00:52:46.173Z,14.68
2019-03-20T00:55:14.248Z,20.80
2019-03-20T00:57:40.695Z,19.80
2019-03-20T01:00:10.876Z,14.85
2019-03-20T01:02:37.415Z,9.05
2019-03-20T01:05:12.150Z,14.43
2019-03-20T01:07:32.691Z,17.12
2019-03-20T01:09:59.241Z,8.00
2019-03-20T01:12:25.702Z,15.30
2019-03-20T01:14:52.156Z,13.43
2019-03-20T01:17:19.006Z,13.18
2019-03-20T01:19:45.541Z,15.10
2019-03-20T01:22:12.017Z,11.38
2019-03-20T01:24:38.554Z,11.73
2019-03-20T01:27:05.046Z,9.50
2019-03-20T01:29:31.473Z,10.65
2019-03-20T01:31:58.058Z,16.12
2019-03-20T01:34:24.594Z,10.50
2019-03-20T01:36:51.145Z,8.73
2019-03-20T01:39:17.798Z,6.97
2019-03-20T01:41:44.256Z,14.75
2019-03-20T01:44:10.733Z,12.05
2019-03-20T01:46:37.216Z,11.05
2019-03-20T01:49:03.866Z,10.35
2019-03-20T01:51:30.212Z,7.08
2019-03-20T01:53:57.447Z,10.53
2019-03-20T01:56:23.908Z,6.72
2019-03-20T01:58:50.394Z,13.22
2019-03-20T02:01:16.755Z,9.40
2019-03-20T02:03:43.223Z,10.93
2019-03-20T02:06:10.031Z,12.58
2019-03-20T02:08:36.487Z,6.37
2019-03-20T02:11:03.041Z,13.78
2019-03-20T02:13:29.534Z,10.90
2019-03-20T02:15:55.971Z,7.85
2019-03-20T02:18:22.905Z,7.22
2019-03-20T02:20:49.751Z,10.60
2019-03-20T02:23:16.267Z,17.35
2019-03-20T02:25:42.713Z,9.40
2019-03-20T02:28:09.160Z,9.20
2019-03-20T02:30:35.846Z,9.50
2019-03-20T02:33:02.498Z,12.10
2019-03-20T02:35:29.177Z,7.70
2019-03-20T02:37:55.909Z,8.65
2019-03-20T02:40:22.381Z,11.10
2019-03-20T02:42:48.824Z,11.15
2019-03-20T02:45:15.807Z,11.28
2019-03-20T02:47:42.466Z,7.20
2019-03-20T02:50:10.157Z,8.18
2019-03-20T02:52:36.704Z,8.05
2019-03-20T02:55:06.080Z,10.13
2019-03-20T02:57:32.531Z,7.85
2019-03-20T02:59:59.000Z,9.63
2019-03-20T03:02:26.817Z,8.30
2019-03-20T03:04:53.373Z,7.70
2019-03-20T03:07:19.852Z,10.60
2019-03-20T03:09:46.501Z,9.95
2019-03-20T03:12:13.074Z,7.20
2019-03-20T03:14:39.570Z,11.38
2019-03-20T03:17:06.032Z,13.85
2019-03-20T03:19:32.396Z,6.75
2019-03-20T03:21:58.868Z,12.05
2019-03-20T03:24:25.322Z,8.00
2019-03-20T03:26:52.010Z,7.75
2019-03-20T03:29:18.541Z,8.35
2019-03-20T03:31:44.984Z,11.15
2019-03-20T03:34:11.578Z,7.75
2019-03-20T03:36:38.013Z,9.45
2019-03-20T03:39:06.169Z,11.15
2019-03-20T03:41:32.809Z,9.05
2019-03-20T03:43:59.386Z,8.60
2019-03-20T03:46:25.965Z,11.80
2019-03-20T03:48:52.447Z,8.83
2019-03-20T03:51:19.244Z,7.87
2019-03-20T03:53:46.107Z,10.10
2019-03-20T03:56:12.684Z,11.65
2019-03-20T03:58:39.128Z,6.92
2019-03-20T04:01:06.024Z,6.92
2019-03-20T04:03:32.484Z,16.93
2019-03-20T04:05:59.395Z,11.83
2019-03-20T04:08:26.086Z,7.58
2019-03-20T04:10:52.661Z,8.15
2019-03-20T04:13:19.429Z,17.10
2019-03-20T04:15:46.179Z,10.10
2019-03-20T04:18:12.635Z,10.68
2019-03-20T04:20:39.333Z,10.53
2019-03-20T04:23:05.803Z,8.68
2019-03-20T04:25:32.420Z,9.68
2019-03-20T04:27:59.142Z,8.78
2019-03-20T04:30:25.626Z,7.37
2019-03-20T04:32:52.413Z,11.63
2019-03-20T04:35:18.976Z,11.30
2019-03-20T04:37:45.536Z,10.30
2019-03-20T04:40:13.379Z,8.58
2019-03-20T04:42:39.870Z,10.32
2019-03-20T04:45:09.143Z,17.77
2019-03-20T04:47:35.636Z,9.18
2019-03-20T04:50:05.209Z,12.60
2019-03-20T04:52:32.077Z,9.35
2019-03-20T04:54:58.558Z,9.45
2019-03-20T04:57:25.001Z,10.10
2019-03-20T04:59:51.492Z,11.75
2019-03-20T05:02:18.028Z,15.98
2019-03-20T05:04:44.426Z,11.90
2019-03-20T05:07:10.963Z,12.75
2019-03-20T05:09:37.448Z,10.03
2019-03-20T05:12:04.090Z,15.88
2019-03-20T05:14:30.531Z,9.70
2019-03-20T05:16:56.913Z,16.23
2019-03-20T05:19:23.665Z,15.13
2019-03-20T05:21:50.128Z,12.70
2019-03-20T05:24:16.563Z,7.95
2019-03-20T05:26:42.927Z,12.63
2019-03-20T05:29:09.478Z,10.68
2019-03-20T05:31:35.955Z,12.50
2019-03-20T05:34:02.595Z,10.18
2019-03-20T05:36:28.992Z,9.58
2019-03-20T05:38:55.443Z,11.22
2019-03-20T05:41:21.903Z,11.63
2019-03-20T05:43:48.256Z,14.10
2019-03-20T05:46:15.049Z,8.53
2019-03-20T05:48:41.610Z,14.18
2019-03-20T05:51:08.151Z,9.93
2019-03-20T05:53:34.627Z,13.83
2019-03-20T05:56:01.080Z,11.10
2019-03-20T05:58:27.565Z,12.28
2019-03-20T06:00:54.471Z,10.95
2019-03-20T06:03:21.064Z,14.00
2019-03-20T06:05:47.951Z,15.65
2019-03-20T06:08:14.707Z,9.38
2019-03-20T06:10:41.092Z,14.15
2019-03-20T06:13:07.559Z,11.83
2019-03-20T06:15:34.029Z,7.95
2019-03-20T06:18:00.483Z,7.60
2019-03-20T06:20:27.270Z,17.65
2019-03-20T06:22:54.214Z,16.57
2019-03-20T06:25:21.470Z,15.85
2019-03-20T06:27:48.141Z,18.90
2019-03-20T06:30:15.716Z,14.90
2019-03-20T06:32:42.175Z,11.12
2019-03-20T06:35:09.248Z,17.48
2019-03-20T06:37:35.787Z,23.90
2019-03-20T06:40:04.599Z,10.35
2019-03-20T06:42:31.625Z,16.12
2019-03-20T06:44:58.080Z,10.58
2019-03-20T06:47:25.001Z,10.93
2019-03-20T06:49:51.440Z,12.10
2019-03-20T06:52:17.895Z,11.22
2019-03-20T06:54:44.354Z,14.20
2019-03-20T06:57:11.056Z,10.18
2019-03-20T06:59:41.301Z,12.98
2019-03-20T07:02:07.987Z,11.05
2019-03-20T07:04:56.353Z,9.65
2019-03-20T07:07:29.850Z,14.65
2019-03-20T07:10:15.523Z,9.15
2019-03-20T07:12:41.978Z,9.80
2019-03-20T07:15:08.340Z,13.53
2019-03-20T07:17:34.912Z,11.05
2019-03-20T07:20:02.394Z,14.55
2019-03-20T07:22:28.968Z,11.83
2019-03-20T07:24:55.527Z,9.38
2019-03-20T07:27:21.992Z,15.23
2019-03-20T07:29:48.455Z,11.80
2019-03-20T07:32:15.140Z,15.08
2019-03-20T07:34:41.589Z,13.40
2019-03-20T07:37:08.152Z,13.98
2019-03-20T07:39:34.491Z,19.05
2019-03-20T07:42:01.000Z,11.33
2019-03-20T07:44:27.361Z,14.70
2019-03-20T07:46:54.295Z,12.58
2019-03-20T07:49:20.763Z,12.88
2019-03-20T07:51:47.214Z,15.65
2019-03-20T07:54:14.001Z,16.40
2019-03-20T07:56:40.450Z,10.25
2019-03-20T07:59:06.937Z,10.78
2019-03-20T08:01:33.371Z,13.20
2019-03-20T08:03:59.846Z,12.90
2019-03-20T08:06:26.675Z,9.55
2019-03-20T08:08:53.183Z,12.00
2019-03-20T08:11:19.624Z,12.95
2019-03-20T08:13:46.187Z,11.73
2019-03-20T08:16:12.670Z,18.17
2019-03-20T08:18:39.113Z,12.23
2019-03-20T08:21:05.692Z,16.10
2019-03-20T08:23:32.384Z,10.60
2019-03-20T08:25:58.989Z,12.43
2019-03-20T08:28:25.914Z,20.57
2019-03-20T08:30:52.580Z,16.15
2019-03-20T08:33:19.023Z,16.50
2019-03-20T08:35:45.595Z,13.43
2019-03-20T08:38:18.286Z,16.70
2019-03-20T08:40:40.845Z,19.85
2019-03-20T08:43:07.464Z,12.10
2019-03-20T08:45:33.926Z,14.03
2019-03-20T08:48:00.487Z,10.63
2019-03-20T08:50:26.932Z,20.97
2019-03-20T08:52:54.043Z,13.15
2019-03-20T08:55:20.986Z,15.90
2019-03-20T08:57:48.439Z,18.40
2019-03-20T09:00:21.931Z,16.42
2019-03-20T09:02:48.708Z,12.75
2019-03-20T09:05:15.567Z,11.20
2019-03-20T09:07:47.190Z,10.88
2019-03-20T09:10:18.714Z,13.83
2019-03-20T09:12:45.303Z,10.10
2019-03-20T09:15:14.065Z,9.30
2019-03-20T09:17:40.618Z,13.65
2019-03-20T09:20:19.652Z,15.93
2019-03-20T09:22:46.203Z,15.05
2019-03-20T09:25:18.339Z,16.55
2019-03-20T09:27:44.876Z,21.73
2019-03-20T09:30:20.973Z,20.92
2019-03-20T09:32:47.874Z,16.27
2019-03-20T09:35:14.752Z,19.90
2019-03-20T09:37:51.218Z,17.15
2019-03-20T09:40:19.096Z,19.48
2019-03-20T09:42:45.645Z,12.30
2019-03-20T09:45:13.915Z,11.22
2019-03-20T09:47:40.371Z,20.43
2019-03-20T09:50:15.208Z,23.40
2019-03-20T09:52:41.780Z,15.15
2019-03-20T09:55:10.455Z,15.10
2019-03-20T09:57:37.036Z,19.27
2019-03-20T10:00:16.017Z,14.07
2019-03-20T10:02:43.178Z,12.75
2019-03-20T10:05:10.216Z,11.15
2019-03-20T10:07:36.696Z,8.85
2019-03-20T10:10:09.804Z,11.13
2019-03-20T10:12:36.580Z,12.23
2019-03-20T10:15:10.041Z,10.87
2019-03-20T10:17:36.931Z,17.93
2019-03-20T10:20:07.097Z,17.53
2019-03-20T10:22:33.889Z,16.35
2019-03-20T10:25:00.459Z,12.40
2019-03-20T10:27:27.161Z,16.30
2019-03-20T10:29:53.636Z,19.87
2019-03-20T10:32:20.093Z,34.20
2019-03-20T10:34:46.675Z,14.53
2019-03-20T10:37:13.127Z,10.53
2019-03-20T10:39:39.623Z,17.20
2019-03-20T10:42:06.201Z,26.23
2019-03-20T10:44:33.220Z,33.17
2019-03-20T10:46:59.795Z,10.13
2019-03-20T10:49:26.595Z,11.80
2019-03-20T10:51:53.552Z,22.37
2019-03-20T10:54:20.293Z,14.23
2019-03-20T10:56:46.816Z,10.30
2019-03-20T10:59:33.175Z,16.33
2019-03-20T11:02:00.918Z,12.30
2019-03-20T11:04:27.602Z,13.47
2019-03-20T11:06:54.088Z,12.50
2019-03-20T11:09:21.011Z,8.30
2019-03-20T11:11:47.477Z,9.50
2019-03-20T11:14:13.935Z,16.47
2019-03-20T11:16:40.488Z,10.00
2019-03-20T11:19:07.248Z,8.47
2019-03-20T11:21:33.602Z,8.33
2019-03-20T11:24:00.781Z,10.93
2019-03-20T11:26:27.302Z,9.20
2019-03-20T11:28:53.828Z,13.57
2019-03-20T11:31:20.271Z,10.33
2019-03-20T11:33:46.872Z,11.83
2019-03-20T11:36:13.332Z,11.33
2019-03-20T11:38:40.092Z,11.23
2019-03-20T11:41:06.890Z,11.00
2019-03-20T11:43:33.637Z,11.67
2019-03-20T11:46:00.678Z,11.63
2019-03-20T11:48:27.121Z,14.50
2019-03-20T11:50:53.518Z,9.13
2019-03-20T11:53:19.960Z,10.73
2019-03-20T11:55:46.438Z,8.80
2019-03-20T11:58:12.903Z,8.40
2019-03-20T12:00:39.689Z,8.10
2019-03-20T12:03:06.242Z,10.70
2019-03-20T12:05:32.833Z,12.90
2019-03-20T12:07:59.814Z,10.80
2019-03-20T12:10:30.793Z,11.00
2019-03-20T12:12:57.707Z,10.80
2019-03-20T12:15:24.747Z,7.30
2019-03-20T12:17:51.585Z,6.17
2019-03-20T12:20:19.554Z,14.73
2019-03-20T12:22:47.096Z,6.50
2019-03-20T12:25:22.885Z,5.10
2019-03-20T12:27:49.608Z,4.37
2019-03-20T12:30:29.670Z,8.50
2019-03-20T12:32:56.684Z,7.47
2019-03-20T12:35:25.599Z,6.03
2019-03-20T12:37:52.267Z,6.27
2019-03-20T12:40:25.666Z,6.90
2019-03-20T12:42:52.356Z,5.67
2019-03-20T12:45:21.478Z,7.57
2019-03-20T12:47:47.922Z,4.80
2019-03-20T12:50:14.422Z,9.63
2019-03-20T12:52:41.386Z,7.50
2019-03-20T12:55:11.193Z,4.93
2019-03-20T12:57:37.943Z,6.80
2019-03-20T13:00:11.001Z,5.20
2019-03-20T13:02:37.984Z,6.50
2019-03-20T13:05:11.058Z,5.90
2019-03-20T13:07:37.503Z,5.90
2019-03-20T13:10:07.456Z,4.70
2019-03-20T13:12:34.127Z,4.37
2019-03-20T13:15:00.796Z,4.17
2019-03-20T13:17:27.634Z,5.30
2019-03-20T13:19:54.477Z,5.90
2019-03-20T13:22:21.221Z,4.77
2019-03-20T13:24:47.668Z,3.90
2019-03-20T13:27:14.153Z,3.23
2019-03-20T13:29:41.403Z,5.53
2019-03-20T13:32:07.991Z,4.53
2019-03-20T13:34:34.439Z,5.20
2019-03-20T13:37:01.109Z,6.30
2019-03-20T13:39:27.595Z,6.80
2019-03-20T13:41:54.159Z,4.90
2019-03-20T13:44:20.621Z,4.87
2019-03-20T13:46:47.089Z,7.53
2019-03-20T13:49:13.538Z,6.93
2019-03-20T13:51:40.121Z,3.50
2019-03-20T13:54:06.565Z,3.87
2019-03-20T13:56:33.236Z,6.13
2019-03-20T13:59:00.174Z,4.67
2019-03-20T14:01:26.658Z,10.50
2019-03-20T14:03:53.121Z,4.60
2019-03-20T14:06:19.888Z,4.83
2019-03-20T14:08:46.759Z,6.17
2019-03-20T14:11:13.326Z,4.37
2019-03-20T14:13:40.212Z,5.70
2019-03-20T14:16:06.594Z,6.63
2019-03-20T14:18:33.050Z,5.13
2019-03-20T14:20:59.933Z,6.33
2019-03-20T14:23:26.382Z,4.90
2019-03-20T14:25:53.296Z,5.77
2019-03-20T14:28:19.879Z,4.70
2019-03-20T14:30:46.532Z,4.93
2019-03-20T14:33:13.320Z,7.60
2019-03-20T14:35:39.877Z,4.40
2019-03-20T14:38:06.904Z,4.53
2019-03-20T14:40:36.520Z,6.50
2019-03-20T14:43:03.625Z,6.00
2019-03-20T14:45:30.264Z,5.73
2019-03-20T14:47:56.844Z,5.90
2019-03-20T14:50:27.352Z,2.93
2019-03-20T14:52:53.946Z,3.63
2019-03-20T14:55:20.599Z,3.13
2019-03-20T14:57:47.068Z,3.57
2019-03-20T15:00:26.411Z,7.20
2019-03-20T15:02:53.081Z,4.50
2019-03-20T15:05:19.731Z,3.80
2019-03-20T15:07:46.435Z,2.67
2019-03-20T15:10:24.836Z,3.87
2019-03-20T15:12:52.718Z,4.33
2019-03-20T15:15:47.606Z,4.83
2019-03-20T15:18:14.479Z,5.20
2019-03-20T15:20:41.169Z,3.23
2019-03-20T15:23:07.842Z,3.57
2019-03-20T15:25:34.512Z,4.00
2019-03-20T15:28:01.147Z,4.27
2019-03-20T15:30:29.592Z,7.73
2019-03-20T15:32:56.383Z,3.80
2019-03-20T15:35:23.067Z,3.47
2019-03-20T15:37:49.511Z,5.03
2019-03-20T15:40:55.718Z,3.50
2019-03-20T15:43:14.939Z,3.90
2019-03-20T15:45:41.789Z,3.03
2019-03-20T15:48:08.357Z,8.10
2019-03-20T15:50:35.272Z,3.47
2019-03-20T15:53:02.312Z,3.47
2019-03-20T15:55:33.653Z,3.30
2019-03-20T15:58:00.298Z,4.73
2019-03-20T16:00:27.205Z,4.50
2019-03-20T16:03:00.333Z,4.00
2019-03-20T16:05:27.388Z,5.37
2019-03-20T16:07:54.261Z,7.20
2019-03-20T16:10:21.989Z,4.73
2019-03-20T16:12:48.539Z,5.10
2019-03-20T16:15:17.823Z,3.20
2019-03-20T16:17:44.463Z,7.60
2019-03-20T16:20:12.364Z,6.87
2019-03-20T16:22:38.817Z,6.15
2019-03-20T16:25:08.700Z,3.47
2019-03-20T16:27:35.261Z,2.57
2019-03-20T16:30:02.823Z,3.57
2019-03-20T16:32:29.270Z,6.33
2019-03-20T16:34:55.743Z,3.90
2019-03-20T16:37:22.486Z,4.80
2019-03-20T16:39:49.051Z,4.40
2019-03-20T16:42:15.427Z,4.67
2019-03-20T16:44:41.823Z,4.00
2019-03-20T16:47:08.289Z,5.03
2019-03-20T16:49:34.755Z,6.73
2019-03-20T16:52:01.596Z,11.17
2019-03-20T16:54:27.935Z,6.20
2019-03-20T16:56:54.510Z,4.13
2019-03-20T16:59:21.080Z,3.47
2019-03-20T17:01:47.559Z,4.47
2019-03-20T17:04:13.921Z,4.83
2019-03-20T17:06:40.310Z,5.17
2019-03-20T17:09:07.145Z,5.00
2019-03-20T17:11:38.414Z,3.27
2019-03-20T17:14:02.168Z,4.43
2019-03-20T17:16:28.657Z,4.20
2019-03-20T17:18:55.544Z,3.73
2019-03-20T17:21:22.211Z,2.83
2019-03-20T17:23:48.774Z,5.87
2019-03-20T17:26:15.560Z,3.50
2019-03-20T17:28:42.026Z,5.50
2019-03-20T17:31:08.675Z,4.00
2019-03-20T17:33:35.175Z,6.13
2019-03-20T17:36:01.721Z,6.90
2019-03-20T17:38:28.205Z,4.70
2019-03-20T17:40:55.078Z,6.27
2019-03-20T17:43:21.924Z,7.20
2019-03-20T17:45:48.482Z,4.80
2019-03-20T17:48:15.202Z,3.70
2019-03-20T17:50:42.045Z,9.40
2019-03-20T17:53:09.000Z,6.47
2019-03-20T17:55:35.551Z,8.03
2019-03-20T17:58:02.143Z,6.83
2019-03-20T18:00:37.277Z,8.50
2019-03-20T18:03:05.609Z,8.20
2019-03-20T18:05:32.551Z,4.50
2019-03-20T18:07:59.305Z,7.40
2019-03-20T18:10:45.644Z,4.83
2019-03-20T18:13:12.406Z,6.90
2019-03-20T18:15:38.876Z,9.00
2019-03-20T18:18:06.551Z,8.20
2019-03-20T18:20:33.215Z,5.53
2019-03-20T18:22:59.587Z,5.70
2019-03-20T18:25:26.185Z,7.50
2019-03-20T18:27:53.020Z,8.80
2019-03-20T18:30:24.379Z,5.95
2019-03-20T18:32:51.051Z,9.93
2019-03-20T18:35:18.296Z,12.30
2019-03-20T18:37:45.395Z,7.62
2019-03-20T18:40:15.932Z,8.75
2019-03-20T18:42:42.517Z,8.78
2019-03-20T18:45:17.817Z,7.47
2019-03-20T18:47:44.556Z,10.30
2019-03-20T18:50:13.490Z,7.12
2019-03-20T18:52:40.102Z,16.05
2019-03-20T18:55:09.379Z,7.50
2019-03-20T18:57:35.936Z,9.43
2019-03-20T19:00:06.589Z,7.03
2019-03-20T19:02:33.044Z,12.75
2019-03-20T19:04:59.440Z,9.05
2019-03-20T19:07:25.903Z,9.68
2019-03-20T19:09:53.634Z,10.85
2019-03-20T19:12:20.909Z,11.30
2019-03-20T19:14:47.371Z,7.75
2019-03-20T19:17:13.863Z,8.20
2019-03-20T19:19:40.316Z,6.55
2019-03-20T19:22:06.791Z,7.15
2019-03-20T19:24:33.251Z,9.83
2019-03-20T19:26:59.816Z,9.13
2019-03-20T19:29:26.372Z,7.80
2019-03-20T19:31:55.667Z,14.50
2019-03-20T19:34:21.558Z,8.58
2019-03-20T19:36:48.086Z,10.80
2019-03-20T19:39:14.536Z,7.65
2019-03-20T19:41:41.113Z,6.92
2019-03-20T19:44:07.603Z,11.18
2019-03-20T19:46:34.059Z,8.55
2019-03-20T19:49:00.540Z,11.80
2019-03-20T19:51:27.002Z,14.33
2019-03-20T19:53:53.567Z,6.87
2019-03-20T19:56:19.962Z,11.38
2019-03-20T19:58:46.411Z,10.38
2019-03-20T20:01:12.954Z,15.08
2019-03-20T20:03:39.445Z,8.13
2019-03-20T20:06:06.202Z,12.65
2019-03-20T20:08:32.785Z,12.58
2019-03-20T20:10:59.249Z,10.63
2019-03-20T20:13:25.833Z,12.45
2019-03-20T20:15:52.401Z,11.38
2019-03-20T20:18:19.226Z,13.10
2019-03-20T20:20:46.105Z,13.10
2019-03-20T20:23:12.514Z,13.48
2019-03-20T20:25:39.106Z,11.03
2019-03-20T20:28:05.643Z,15.75
2019-03-20T20:30:32.158Z,13.43
2019-03-20T20:32:58.707Z,10.60
2019-03-20T20:35:25.094Z,9.03
2019-03-20T20:37:51.652Z,6.50
2019-03-20T20:40:26.879Z,11.15
2019-03-20T20:42:53.431Z,12.73
2019-03-20T20:45:20.204Z,9.33
2019-03-20T20:47:46.779Z,8.00
2019-03-20T20:50:14.558Z,13.18
2019-03-20T20:52:41.229Z,12.15
2019-03-20T20:55:10.807Z,9.25
2019-03-20T20:57:37.355Z,9.78
2019-03-20T21:00:10.701Z,10.98
2019-03-20T21:02:37.453Z,12.47
2019-03-20T21:05:05.932Z,11.45
2019-03-20T21:07:32.408Z,9.35
2019-03-20T21:09:58.959Z,8.75
2019-03-20T21:12:25.336Z,10.75
2019-03-20T21:14:51.898Z,14.18
2019-03-20T21:17:22.167Z,19.20
2019-03-20T21:19:48.547Z,7.22
2019-03-20T21:22:24.516Z,11.73
2019-03-20T21:24:51.058Z,17.07
2019-03-20T21:27:38.124Z,19.60
2019-03-20T21:30:35.173Z,11.48
2019-03-20T21:33:14.451Z,14.10
2019-03-20T21:36:08.201Z,12.13
2019-03-20T21:38:34.686Z,14.28
2019-03-20T21:41:17.558Z,17.40
2019-03-20T21:44:20.130Z,15.78
2019-03-20T21:47:07.787Z,10.78
2019-03-20T21:49:34.196Z,18.98
2019-03-20T21:52:00.940Z,12.35
2019-03-20T21:55:03.296Z,13.58
2019-03-20T21:57:33.685Z,20.80
2019-03-20T22:00:22.393Z,17.35
2019-03-20T22:02:49.251Z,15.03
2019-03-20T22:05:31.843Z,17.65
2019-03-20T22:07:58.320Z,15.85
2019-03-20T22:10:58.835Z,14.05
2019-03-20T22:13:34.816Z,14.10
2019-03-20T22:16:08.072Z,14.28
2019-03-20T22:19:15.566Z,17.17
2019-03-20T22:22:18.282Z,14.20
2019-03-20T22:25:08.164Z,18.12
2019-03-20T22:27:47.525Z,21.27
2019-03-20T22:30:14.161Z,16.55
2019-03-20T22:32:44.738Z,13.65
2019-03-20T22:35:15.011Z,13.62
2019-03-20T22:37:41.514Z,15.15
2019-03-20T22:40:17.682Z,13.25
2019-03-20T22:42:53.760Z,17.67
2019-03-20T22:45:56.112Z,11.03
2019-03-20T22:48:33.076Z,11.18
2019-03-20T22:51:18.255Z,15.03
2019-03-20T22:54:11.216Z,16.20
2019-03-20T22:56:41.495Z,17.07
2019-03-20T22:59:08.049Z,15.23
2019-03-20T23:01:47.484Z,13.35
2019-03-20T23:04:17.750Z,17.15
2019-03-20T23:06:44.573Z,12.43
2019-03-20T23:09:11.033Z,12.85
2019-03-20T23:11:38.006Z,13.30
2019-03-20T23:14:04.691Z,12.23
2019-03-20T23:16:31.164Z,17.27
2019-03-20T23:18:57.606Z,13.68
2019-03-20T23:21:24.093Z,15.70
2019-03-20T23:23:50.643Z,16.35
2019-03-20T23:26:17.117Z,14.65
2019-03-20T23:28:43.675Z,13.10
2019-03-20T23:31:10.642Z,12.95
2019-03-20T23:33:37.269Z,11.40
2019-03-20T23:36:04.068Z,14.18
2019-03-20T23:38:30.881Z,15.45
2019-03-20T23:40:57.343Z,11.57
2019-03-20T23:43:24.040Z,12.40
2019-03-20T23:45:50.605Z,13.93
2019-03-20T23:48:33.118Z,12.95
2019-03-20T23:51:03.322Z,16.35
2019-03-20T23:53:31.176Z,10.05
2019-03-20T23:55:57.651Z,11.28
2019-03-20T23:58:24.120Z,20.20
